createdAt,value
2022-09-22T00:01:13.270Z,6.23
2022-09-22T00:03:42.841Z,6.14
2022-09-22T00:06:11.824Z,6.19
2022-09-22T00:08:41.175Z,6.21
2022-09-22T00:11:13.707Z,6.17
2022-09-22T00:13:41.929Z,6.05
2022-09-22T00:16:11.914Z,6.11
2022-09-22T00:18:39.291Z,6.05
2022-09-22T00:21:09.101Z,6.08
2022-09-22T00:23:37.037Z,6.02
2022-09-22T00:26:10.321Z,6.00
2022-09-22T00:28:38.502Z,6.07
2022-09-22T00:31:07.288Z,5.82
2022-09-22T00:33:37.886Z,5.75
2022-09-22T00:36:05.912Z,5.85
2022-09-22T00:38:33.914Z,5.82
2022-09-22T00:41:01.764Z,5.81
2022-09-22T00:43:30.433Z,5.82
2022-09-22T00:46:00.757Z,5.83
2022-09-22T00:48:29.615Z,5.87
2022-09-22T00:51:01.190Z,5.69
2022-09-22T00:53:29.481Z,5.67
2022-09-22T00:55:59.157Z,5.72
2022-09-22T00:58:31.288Z,5.77
2022-09-22T01:00:58.905Z,5.74
2022-09-22T01:03:29.872Z,5.77
2022-09-22T01:06:01.265Z,5.81
2022-09-22T01:08:29.642Z,5.90
2022-09-22T01:10:57.802Z,5.85
2022-09-22T01:13:28.710Z,5.88
2022-09-22T01:16:07.956Z,5.74
2022-09-22T01:18:43.377Z,5.55
2022-09-22T01:21:26.985Z,5.61
2022-09-22T01:24:12.061Z,5.56
2022-09-22T01:26:55.840Z,5.57
2022-09-22T01:29:38.941Z,5.61
2022-09-22T01:32:13.292Z,5.61
2022-09-22T01:34:44.797Z,5.60
2022-09-22T01:37:18.033Z,5.53
2022-09-22T01:39:47.201Z,5.49
2022-09-22T01:42:23.519Z,5.49
2022-09-22T01:44:53.924Z,5.41
2022-09-22T01:47:24.998Z,5.35
2022-09-22T01:49:58.062Z,5.37
2022-09-22T01:52:28.196Z,5.36
2022-09-22T01:54:58.064Z,5.40
2022-09-22T01:57:31.605Z,5.47
2022-09-22T02:00:04.186Z,5.53
2022-09-22T02:02:43.799Z,5.41
2022-09-22T02:05:15.005Z,5.31
2022-09-22T02:07:46.663Z,5.28
2022-09-22T02:10:17.665Z,5.19
2022-09-22T02:12:45.120Z,5.10
2022-09-22T02:15:26.575Z,5.16
2022-09-22T02:17:58.190Z,5.13
2022-09-22T02:20:25.735Z,5.10
2022-09-22T02:22:53.135Z,5.08
2022-09-22T02:25:21.065Z,5.04
2022-09-22T02:27:48.965Z,5.10
2022-09-22T02:30:16.349Z,5.02
2022-09-22T02:32:46.837Z,4.86
2022-09-22T02:35:15.834Z,4.91
2022-09-22T02:37:49.541Z,4.80
2022-09-22T02:40:23.190Z,4.82
2022-09-22T02:42:55.338Z,4.87
2022-09-22T02:45:25.144Z,4.93
2022-09-22T02:47:57.103Z,4.96
2022-09-22T02:50:28.120Z,4.95
2022-09-22T02:52:59.219Z,5.01
2022-09-22T02:55:26.633Z,5.08
2022-09-22T02:57:54.397Z,5.13
2022-09-22T03:00:22.236Z,5.15
2022-09-22T03:02:49.712Z,5.10
2022-09-22T03:05:17.304Z,5.11
2022-09-22T03:07:46.049Z,5.07
2022-09-22T03:10:13.489Z,5.06
2022-09-22T03:13:09.166Z,4.97
2022-09-22T03:15:34.561Z,5.07
2022-09-22T03:18:01.950Z,5.01
2022-09-22T03:20:29.404Z,4.97
2022-09-22T03:22:58.147Z,4.89
2022-09-22T03:25:25.508Z,4.79
2022-09-22T03:27:54.857Z,4.78
2022-09-22T03:30:22.304Z,4.78
2022-09-22T03:32:49.726Z,4.68
2022-09-22T03:35:17.210Z,4.61
2022-09-22T03:37:44.607Z,4.59
2022-09-22T03:40:13.548Z,4.51
2022-09-22T03:42:40.996Z,4.56
2022-09-22T03:45:10.192Z,4.52
2022-09-22T03:47:37.535Z,4.41
2022-09-22T03:50:05.732Z,4.36
2022-09-22T03:52:33.369Z,4.33
2022-09-22T03:55:02.809Z,4.36
2022-09-22T03:57:31.520Z,4.38
2022-09-22T03:59:58.934Z,4.39
2022-09-22T04:02:26.491Z,4.37
2022-09-22T04:04:53.868Z,4.44
2022-09-22T04:07:21.251Z,4.43
2022-09-22T04:09:48.601Z,4.33
2022-09-22T04:12:16.235Z,4.34
2022-09-22T04:14:44.984Z,4.34
2022-09-22T04:17:13.165Z,4.26
2022-09-22T04:19:40.557Z,4.26
2022-09-22T04:22:07.892Z,4.20
2022-09-22T04:24:35.316Z,4.28
2022-09-22T04:27:19.003Z,4.30
2022-09-22T04:29:48.986Z,4.36
2022-09-22T04:32:16.882Z,4.26
2022-09-22T04:34:44.245Z,4.20
2022-09-22T04:37:11.875Z,4.20
2022-09-22T04:39:39.352Z,4.26
2022-09-22T04:42:08.808Z,4.24
2022-09-22T04:44:36.194Z,4.27
2022-09-22T04:47:05.769Z,4.34
2022-09-22T04:49:33.240Z,4.34
2022-09-22T04:52:00.661Z,4.38
2022-09-22T04:54:28.044Z,4.38
2022-09-22T04:56:55.391Z,4.37
2022-09-22T04:59:22.758Z,4.42
2022-09-22T05:01:50.118Z,4.37
2022-09-22T05:04:19.602Z,4.45
2022-09-22T05:06:46.937Z,4.50
2022-09-22T05:09:14.604Z,4.48
2022-09-22T05:11:41.993Z,4.39
2022-09-22T05:14:09.477Z,4.49
2022-09-22T05:16:37.086Z,4.51
2022-09-22T05:19:04.526Z,4.52
2022-09-22T05:21:33.195Z,4.50
2022-09-22T05:24:00.814Z,4.56
2022-09-22T05:26:28.349Z,4.62
2022-09-22T05:28:56.019Z,4.63
2022-09-22T05:31:23.466Z,4.69
2022-09-22T05:33:51.006Z,4.67
2022-09-22T05:36:18.361Z,4.75
2022-09-22T05:38:47.095Z,4.50
2022-09-22T05:41:14.418Z,4.70
2022-09-22T05:43:41.757Z,4.73
2022-09-22T05:46:09.253Z,4.78
2022-09-22T05:48:36.672Z,4.93
2022-09-22T05:51:04.085Z,5.04
2022-09-22T05:53:31.501Z,5.28
2022-09-22T05:56:00.911Z,5.27
2022-09-22T05:58:28.280Z,5.36
2022-09-22T06:00:57.506Z,5.11
2022-09-22T06:03:24.916Z,5.18
2022-09-22T06:05:52.284Z,5.29
2022-09-22T06:08:19.616Z,5.57
2022-09-22T06:10:48.945Z,5.63
2022-09-22T06:13:17.727Z,5.77
2022-09-22T06:15:46.430Z,5.89
2022-09-22T06:18:15.303Z,6.18
2022-09-22T06:20:43.557Z,6.43
2022-09-22T06:23:12.521Z,6.62
2022-09-22T06:25:40.193Z,6.80
2022-09-22T06:28:09.561Z,7.04
2022-09-22T06:30:39.998Z,7.17
2022-09-22T06:33:08.024Z,7.30
2022-09-22T06:35:37.535Z,7.47
2022-09-22T06:38:05.990Z,7.62
2022-09-22T06:40:33.801Z,7.88
2022-09-22T06:43:07.538Z,8.60
2022-09-22T06:45:35.291Z,9.27
2022-09-22T06:48:09.488Z,9.77
2022-09-22T06:50:38.050Z,10.63
2022-09-22T06:53:08.161Z,11.31
2022-09-22T06:55:37.053Z,11.72
2022-09-22T06:58:04.839Z,12.22
2022-09-22T07:00:33.503Z,12.61
2022-09-22T07:03:08.541Z,12.87
2022-09-22T07:05:37.425Z,12.92
2022-09-22T07:08:05.621Z,13.32
2022-09-22T07:10:37.640Z,13.67
2022-09-22T07:13:06.211Z,14.47
2022-09-22T07:15:35.565Z,14.69
2022-09-22T07:18:03.042Z,15.07
2022-09-22T07:20:35.601Z,14.98
2022-09-22T07:23:03.008Z,15.23
2022-09-22T07:25:35.766Z,14.90
2022-09-22T07:28:04.901Z,15.12
2022-09-22T07:30:32.396Z,15.44
2022-09-22T07:33:01.641Z,15.87
2022-09-22T07:35:29.204Z,15.55
2022-09-22T07:38:03.209Z,15.93
2022-09-22T07:40:30.607Z,15.92
2022-09-22T07:42:58.058Z,15.88
2022-09-22T07:45:25.474Z,16.11
2022-09-22T07:48:10.452Z,16.06
2022-09-22T07:50:37.873Z,16.42
2022-09-22T07:53:06.824Z,16.51
2022-09-22T07:55:36.714Z,16.40
2022-09-22T07:58:04.201Z,16.43
2022-09-22T08:00:33.037Z,16.69
2022-09-22T08:03:01.412Z,16.81
2022-09-22T08:05:30.117Z,17.10
2022-09-22T08:07:58.259Z,16.84
2022-09-22T08:10:27.362Z,16.86
2022-09-22T08:12:55.112Z,16.38
2022-09-22T08:15:26.793Z,15.69
2022-09-22T08:17:57.401Z,15.59
2022-09-22T08:20:26.220Z,15.60
2022-09-22T08:22:53.833Z,15.46
2022-09-22T08:25:21.274Z,15.49
2022-09-22T08:27:50.001Z,15.64
2022-09-22T08:30:18.823Z,15.81
2022-09-22T08:32:46.733Z,15.80
2022-09-22T08:35:14.272Z,16.05
2022-09-22T08:37:43.692Z,16.38
2022-09-22T08:40:17.987Z,16.50
2022-09-22T08:42:45.522Z,16.38
2022-09-22T08:45:26.776Z,16.53
2022-09-22T08:48:13.608Z,16.49
2022-09-22T08:51:06.296Z,16.28
2022-09-22T08:53:35.154Z,15.88
2022-09-22T08:56:06.923Z,16.35
2022-09-22T08:58:44.573Z,16.46
2022-09-22T09:01:23.119Z,16.44
2022-09-22T09:03:57.648Z,16.73
2022-09-22T09:06:32.028Z,17.19
2022-09-22T09:09:10.530Z,17.24
2022-09-22T09:11:49.645Z,16.98
2022-09-22T09:14:30.308Z,17.32
2022-09-22T09:17:02.474Z,17.43
2022-09-22T09:19:34.307Z,17.61
2022-09-22T09:22:05.701Z,17.69
2022-09-22T09:27:26.956Z,17.71
2022-09-22T09:30:03.025Z,18.15
2022-09-22T09:32:37.703Z,18.01
2022-09-22T09:35:06.591Z,18.16
2022-09-22T09:37:34.914Z,18.66
2022-09-22T09:40:05.101Z,18.91
2022-09-22T09:42:36.163Z,18.84
2022-09-22T09:45:04.164Z,19.20
2022-09-22T09:47:50.047Z,19.10
2022-09-22T09:50:18.717Z,19.18
2022-09-22T09:52:47.298Z,19.53
2022-09-22T09:55:26.739Z,19.51
2022-09-22T09:58:09.335Z,19.61
2022-09-22T10:00:52.817Z,19.69
2022-09-22T10:03:28.506Z,19.50
2022-09-22T10:06:02.627Z,19.62
2022-09-22T10:08:36.349Z,19.36
2022-09-22T10:11:04.935Z,19.35
2022-09-22T10:13:36.331Z,19.12
2022-09-22T10:16:20.281Z,19.12
2022-09-22T10:18:50.229Z,19.72
2022-09-22T10:21:19.206Z,19.51
2022-09-22T10:23:47.584Z,19.72
2022-09-22T10:26:17.830Z,19.83
2022-09-22T10:28:47.117Z,19.63
2022-09-22T10:42:59.470Z,20.54
2022-09-22T10:45:36.938Z,20.74
2022-09-22T10:48:10.259Z,20.94
2022-09-22T10:51:03.486Z,21.01
2022-09-22T10:53:37.551Z,21.03
2022-09-22T10:56:12.353Z,20.68
2022-09-22T10:58:55.193Z,20.77
2022-09-22T11:01:33.785Z,20.84
2022-09-22T11:04:11.966Z,21.23
2022-09-22T11:07:24.073Z,21.63
2022-09-22T11:10:14.113Z,21.71
2022-09-22T11:12:47.906Z,21.61
2022-09-22T11:15:30.744Z,20.90
2022-09-22T11:18:21.511Z,20.87
2022-09-22T11:20:52.243Z,20.29
2022-09-22T11:23:46.479Z,20.39
2022-09-22T11:26:29.859Z,20.05
2022-09-22T11:29:10.973Z,20.18
2022-09-22T11:31:45.287Z,20.44
2022-09-22T11:34:34.132Z,20.19
2022-09-22T11:37:25.519Z,20.23
2022-09-22T11:40:08.556Z,20.82
2022-09-22T11:42:41.453Z,21.09
2022-09-22T11:45:16.993Z,21.91
2022-09-22T11:47:52.585Z,22.43
2022-09-22T11:50:40.780Z,22.90
2022-09-22T11:53:47.802Z,22.46
2022-09-22T11:56:32.994Z,22.63
2022-09-22T11:59:04.005Z,22.31
2022-09-22T12:01:33.273Z,21.96
2022-09-22T12:04:08.983Z,22.04
2022-09-22T12:06:41.172Z,21.72
2022-09-22T12:09:13.588Z,22.12
2022-09-22T12:11:41.821Z,22.70
2022-09-22T12:14:13.622Z,22.96
2022-09-22T12:16:45.674Z,23.16
2022-09-22T12:19:21.804Z,23.00
2022-09-22T12:21:53.458Z,23.45
2022-09-22T12:24:21.202Z,22.24
2022-09-22T12:26:49.972Z,21.71
2022-09-22T12:29:27.148Z,21.99
2022-09-22T12:31:56.594Z,22.27
2022-09-22T12:34:28.004Z,22.06
2022-09-22T12:36:59.310Z,22.31
2022-09-22T12:39:28.884Z,23.09
2022-09-22T12:41:59.981Z,23.47
2022-09-22T12:44:29.665Z,24.23
2022-09-22T12:47:02.175Z,24.83
2022-09-22T12:49:31.669Z,24.86
2022-09-22T12:51:59.222Z,24.15
2022-09-22T12:54:47.367Z,23.54
2022-09-22T12:57:27.583Z,23.88
2022-09-22T13:00:07.485Z,24.28
2022-09-22T13:02:42.881Z,23.41
2022-09-22T13:05:33.913Z,24.54
2022-09-22T13:08:01.674Z,25.07
2022-09-22T13:10:41.387Z,25.38
2022-09-22T13:13:19.756Z,25.06
2022-09-22T13:15:59.277Z,25.48
2022-09-22T13:18:31.577Z,25.99
2022-09-22T13:21:01.744Z,26.49
2022-09-22T13:23:29.756Z,24.82
2022-09-22T13:26:07.501Z,24.25
2022-09-22T13:28:35.056Z,24.08
2022-09-22T13:31:06.260Z,24.15
2022-09-22T13:33:35.626Z,23.85
2022-09-22T13:36:07.073Z,23.36
2022-09-22T13:38:36.898Z,23.06
2022-09-22T13:41:05.249Z,22.58
2022-09-22T13:43:35.083Z,22.46
2022-09-22T13:46:03.293Z,22.22
2022-09-22T13:48:33.881Z,21.82
2022-09-22T13:51:05.486Z,21.71
2022-09-22T13:53:33.373Z,21.73
2022-09-22T13:56:01.026Z,21.59
2022-09-22T13:58:34.369Z,21.27
2022-09-22T14:01:13.046Z,21.17
2022-09-22T14:03:41.090Z,20.50
2022-09-22T14:06:13.482Z,20.13
2022-09-22T14:08:41.611Z,20.27
2022-09-22T14:11:16.331Z,19.96
2022-09-22T14:13:45.127Z,20.04
2022-09-22T14:16:15.995Z,20.81
2022-09-22T14:18:46.605Z,21.86
2022-09-22T14:21:15.561Z,22.26
2022-09-22T14:23:44.916Z,22.91
2022-09-22T14:26:27.517Z,23.30
2022-09-22T14:28:57.687Z,24.08
2022-09-22T14:31:29.098Z,24.25
2022-09-22T14:33:57.236Z,24.49
2022-09-22T14:36:26.726Z,24.43
2022-09-22T14:39:08.194Z,24.22
2022-09-22T14:41:38.096Z,23.47
2022-09-22T14:44:27.248Z,22.08
2022-09-22T14:46:56.292Z,21.55
2022-09-22T14:49:37.357Z,20.94
2022-09-22T14:52:08.476Z,20.54
2022-09-22T14:54:36.013Z,20.36
2022-09-22T14:57:07.123Z,20.48
2022-09-22T14:59:54.318Z,20.05
2022-09-22T15:02:34.223Z,19.85
2022-09-22T15:05:03.595Z,19.78
2022-09-22T15:07:35.634Z,19.70
2022-09-22T15:10:06.401Z,19.42
2022-09-22T15:12:39.754Z,19.31
2022-09-22T15:15:19.307Z,19.24
2022-09-22T15:18:05.714Z,19.03
2022-09-22T15:20:42.431Z,18.77
2022-09-22T15:23:15.738Z,18.57
2022-09-22T15:25:43.612Z,18.37
2022-09-22T15:28:15.742Z,18.01
2022-09-22T15:30:44.550Z,17.63
2022-09-22T15:33:14.565Z,17.54
2022-09-22T15:35:44.531Z,17.39
2022-09-22T15:38:21.704Z,17.65
2022-09-22T15:40:49.119Z,18.22
2022-09-22T15:43:20.649Z,18.83
2022-09-22T15:45:49.379Z,19.40
2022-09-22T15:48:23.285Z,19.34
2022-09-22T15:50:51.017Z,19.20
2022-09-22T15:53:19.797Z,19.28
2022-09-22T15:55:47.839Z,18.99
2022-09-22T15:58:16.745Z,18.86
2022-09-22T16:00:44.193Z,18.90
2022-09-22T16:03:15.322Z,18.90
2022-09-22T16:05:44.647Z,18.70
2022-09-22T16:08:15.943Z,18.61
2022-09-22T16:10:45.342Z,18.67
2022-09-22T16:13:12.929Z,18.54
2022-09-22T16:15:40.495Z,18.31
2022-09-22T16:18:08.410Z,18.04
2022-09-22T16:20:37.889Z,17.93
2022-09-22T16:23:06.310Z,17.68
2022-09-22T16:25:33.923Z,17.60
2022-09-22T16:28:03.270Z,17.58
2022-09-22T16:30:30.622Z,17.68
2022-09-22T16:32:58.017Z,17.71
2022-09-22T16:35:25.501Z,17.62
2022-09-22T16:37:55.777Z,17.51
2022-09-22T16:40:24.688Z,17.40
2022-09-22T16:42:52.456Z,17.45
2022-09-22T16:45:41.155Z,17.23
2022-09-22T16:48:08.553Z,17.14
2022-09-22T16:50:37.553Z,16.99
2022-09-22T16:53:07.150Z,16.86
2022-09-22T16:55:37.315Z,16.76
2022-09-22T16:58:07.219Z,16.58
2022-09-22T17:00:39.207Z,16.34
2022-09-22T17:03:06.682Z,16.12
2022-09-22T17:05:34.198Z,15.90
2022-09-22T17:08:06.471Z,15.67
2022-09-22T17:10:35.472Z,15.55
2022-09-22T17:13:04.758Z,15.19
2022-09-22T17:15:35.712Z,14.96
2022-09-22T17:18:05.085Z,14.78
2022-09-22T17:20:32.478Z,14.55
2022-09-22T17:22:59.885Z,14.35
2022-09-22T17:25:28.905Z,14.10
2022-09-22T17:27:57.160Z,13.96
2022-09-22T17:30:24.843Z,13.91
2022-09-22T17:32:53.440Z,13.77
2022-09-22T17:35:22.169Z,13.45
2022-09-22T17:37:52.088Z,13.40
2022-09-22T17:40:19.571Z,13.23
2022-09-22T17:42:47.618Z,13.05
2022-09-22T17:45:15.654Z,12.92
2022-09-22T17:48:02.437Z,12.75
2022-09-22T17:50:49.043Z,12.54
2022-09-22T17:53:33.717Z,12.36
2022-09-22T17:56:04.986Z,12.08
2022-09-22T17:58:32.728Z,12.08
2022-09-22T18:01:00.145Z,12.02
2022-09-22T18:03:27.805Z,11.62
2022-09-22T18:05:57.249Z,11.57
2022-09-22T18:08:25.077Z,11.54
2022-09-22T18:10:52.405Z,11.51
2022-09-22T18:13:19.756Z,11.47
2022-09-22T18:15:47.274Z,11.50
2022-09-22T18:18:14.810Z,11.45
2022-09-22T18:20:42.733Z,11.32
2022-09-22T18:23:12.334Z,11.20
2022-09-22T18:25:41.236Z,11.18
2022-09-22T18:28:08.657Z,11.08
2022-09-22T18:30:40.064Z,11.08
2022-09-22T18:33:07.419Z,10.97
2022-09-22T18:35:34.825Z,10.69
2022-09-22T18:38:02.251Z,10.49
2022-09-22T18:40:32.312Z,10.64
2022-09-22T18:42:59.739Z,10.72
2022-09-22T18:45:27.727Z,10.73
2022-09-22T18:47:58.984Z,10.63
2022-09-22T18:50:26.958Z,10.52
2022-09-22T18:52:56.633Z,10.39
2022-09-22T18:55:24.016Z,10.48
2022-09-22T18:57:53.991Z,10.52
2022-09-22T19:00:22.084Z,10.52
2022-09-22T19:02:50.210Z,10.44
2022-09-22T19:05:18.009Z,10.35
2022-09-22T19:07:48.254Z,10.42
2022-09-22T19:10:18.763Z,10.43
2022-09-22T19:12:46.339Z,10.45
2022-09-22T19:15:18.484Z,10.50
2022-09-22T19:17:49.116Z,10.54
2022-09-22T19:20:22.321Z,10.60
2022-09-22T19:22:50.273Z,10.63
2022-09-22T19:25:19.977Z,10.70
2022-09-22T19:27:47.362Z,10.81
2022-09-22T19:30:20.548Z,10.89
2022-09-22T19:32:50.753Z,10.83
2022-09-22T19:35:18.349Z,10.96
2022-09-22T19:37:45.805Z,11.06
2022-09-22T19:40:18.461Z,11.12
2022-09-22T19:42:46.006Z,11.20
2022-09-22T19:45:13.549Z,11.18
2022-09-22T19:47:44.521Z,11.15
2022-09-22T19:50:11.937Z,10.99
2022-09-22T19:52:39.448Z,10.93
2022-09-22T19:55:07.877Z,10.90
2022-09-22T19:57:40.968Z,10.82
2022-09-22T20:00:10.177Z,10.78
2022-09-22T20:02:40.493Z,10.67
2022-09-22T20:05:17.673Z,10.62
2022-09-22T20:07:45.061Z,10.51
2022-09-22T20:10:13.204Z,10.43
2022-09-22T20:12:40.726Z,10.38
2022-09-22T20:15:08.832Z,10.32
2022-09-22T20:17:36.186Z,10.26
2022-09-22T20:20:03.625Z,10.14
2022-09-22T20:22:32.960Z,10.05
2022-09-22T20:25:01.950Z,9.91
2022-09-22T20:27:31.481Z,9.79
2022-09-22T20:30:02.372Z,9.72
2022-09-22T20:32:32.009Z,9.73
2022-09-22T20:34:59.790Z,9.69
2022-09-22T20:37:27.371Z,9.56
2022-09-22T20:39:57.384Z,9.41
2022-09-22T20:42:25.662Z,9.60
2022-09-22T20:44:53.314Z,9.60
2022-09-22T20:47:21.849Z,9.51
2022-09-22T20:49:51.916Z,9.57
2022-09-22T20:52:20.987Z,9.46
2022-09-22T20:54:49.232Z,9.69
2022-09-22T20:57:18.882Z,9.87
2022-09-22T20:59:47.419Z,10.05
2022-09-22T21:02:15.878Z,10.06
2022-09-22T21:04:43.634Z,10.36
2022-09-22T21:07:11.405Z,10.60
2022-09-22T21:09:56.931Z,10.82
2022-09-22T21:12:31.093Z,11.00
2022-09-22T21:14:59.261Z,11.19
2022-09-22T21:17:27.575Z,11.45
2022-09-22T21:19:57.008Z,11.73
2022-09-22T21:22:24.707Z,11.83
2022-09-22T21:24:52.491Z,11.89
2022-09-22T21:27:20.478Z,11.92
2022-09-22T21:29:51.703Z,12.10
2022-09-22T21:32:19.900Z,12.10
2022-09-22T21:34:47.466Z,12.19
2022-09-22T21:37:15.441Z,12.22
2022-09-22T21:39:43.112Z,12.47
2022-09-22T21:42:10.743Z,12.35
2022-09-22T21:44:39.062Z,12.23
2022-09-22T21:47:08.029Z,12.33
2022-09-22T21:49:35.501Z,12.33
2022-09-22T21:52:03.023Z,12.39
2022-09-22T21:54:31.042Z,12.44
2022-09-22T21:56:58.465Z,12.37
2022-09-22T21:59:25.874Z,12.20
2022-09-22T22:01:53.274Z,12.37
2022-09-22T22:04:22.037Z,12.45
2022-09-22T22:06:49.409Z,12.53
2022-09-22T22:09:18.631Z,12.36
2022-09-22T22:11:48.995Z,12.18
2022-09-22T22:14:18.334Z,12.20
2022-09-22T22:16:46.982Z,12.11
2022-09-22T22:19:17.055Z,12.08
2022-09-22T22:21:46.645Z,12.02
2022-09-22T22:24:28.412Z,11.99
2022-09-22T22:26:57.390Z,12.00
2022-09-22T22:29:26.933Z,11.82
2022-09-22T22:31:54.648Z,11.65
2022-09-22T22:34:25.466Z,11.16
2022-09-22T22:36:54.928Z,11.10
2022-09-22T22:39:22.753Z,10.91
2022-09-22T22:41:50.163Z,10.79
2022-09-22T22:44:18.835Z,10.48
2022-09-22T22:46:46.748Z,10.24
2022-09-22T22:49:14.568Z,10.00
2022-09-22T22:51:43.019Z,9.87
2022-09-22T22:54:12.526Z,9.82
2022-09-22T22:56:42.433Z,9.70
2022-09-22T22:59:11.223Z,9.61
2022-09-22T23:01:40.202Z,9.43
2022-09-22T23:04:08.824Z,9.38
2022-09-22T23:06:38.782Z,9.34
2022-09-22T23:09:08.113Z,9.24
2022-09-22T23:11:39.626Z,9.18
2022-09-22T23:14:11.255Z,9.06
2022-09-22T23:16:40.523Z,8.99
2022-09-22T23:19:10.778Z,8.96
2022-09-22T23:21:40.674Z,8.89
2022-09-22T23:24:08.881Z,8.89
2022-09-22T23:26:38.077Z,8.62
2022-09-22T23:29:06.612Z,8.67
2022-09-22T23:31:34.289Z,8.68
2022-09-22T23:34:01.701Z,8.78
2022-09-22T23:36:30.165Z,8.82
2022-09-22T23:39:01.815Z,8.90
2022-09-22T23:41:29.301Z,8.85
2022-09-22T23:43:58.062Z,8.86
2022-09-22T23:46:25.460Z,8.84
2022-09-22T23:48:53.262Z,8.74
2022-09-22T23:51:20.653Z,8.69
2022-09-22T23:53:48.167Z,8.67
2022-09-22T23:56:15.688Z,8.54
2022-09-22T23:58:43.092Z,8.64
